sensor_id;sensor_type;location;lat;lon;timestamp;temperature;humidity
12922;DHT22;6528;48.086;16.282;2022-12-15T00:02:45;19.80;76.60
12922;DHT22;6528;48.086;16.282;2022-12-15T00:05:30;19.80;76.60
12922;DHT22;6528;48.086;16.282;2022-12-15T00:08:16;19.80;76.60
12922;DHT22;6528;48.086;16.282;2022-12-15T00:11:01;19.80;76.60
12922;DHT22;6528;48.086;16.282;2022-12-15T00:13:47;19.80;76.50
12922;DHT22;6528;48.086;16.282;2022-12-15T00:16:32;19.80;76.60
12922;DHT22;6528;48.086;16.282;2022-12-15T00:19:18;19.80;76.60
12922;DHT22;6528;48.086;16.282;2022-12-15T00:22:04;19.80;76.60
12922;DHT22;6528;48.086;16.282;2022-12-15T00:24:50;19.80;76.60
12922;DHT22;6528;48.086;16.282;2022-12-15T00:27:35;19.70;76.40
12922;DHT22;6528;48.086;16.282;2022-12-15T00:30:21;19.70;76.30
12922;DHT22;6528;48.086;16.282;2022-12-15T00:33:10;19.70;76.30
12922;DHT22;6528;48.086;16.282;2022-12-15T00:35:59;19.70;76.20
12922;DHT22;6528;48.086;16.282;2022-12-15T00:38:45;19.80;76.30
12922;DHT22;6528;48.086;16.282;2022-12-15T00:41:15;19.70;76.10
12922;DHT22;6528;48.086;16.282;2022-12-15T00:43:43;19.70;76.10
12922;DHT22;6528;48.086;16.282;2022-12-15T00:46:10;19.80;76.20
12922;DHT22;6528;48.086;16.282;2022-12-15T00:48:56;19.70;76.00
12922;DHT22;6528;48.086;16.282;2022-12-15T00:51:23;19.70;76.00
12922;DHT22;6528;48.086;16.282;2022-12-15T00:54:09;19.70;76.00
12922;DHT22;6528;48.086;16.282;2022-12-15T00:56:54;19.80;76.00
12922;DHT22;6528;48.086;16.282;2022-12-15T00:59:40;19.70;75.90
12922;DHT22;6528;48.086;16.282;2022-12-15T01:02:25;19.70;75.90
12922;DHT22;6528;48.086;16.282;2022-12-15T01:05:11;19.70;76.00
12922;DHT22;6528;48.086;16.282;2022-12-15T01:07:58;19.70;76.00
12922;DHT22;6528;48.086;16.282;2022-12-15T01:10:44;19.70;76.10
12922;DHT22;6528;48.086;16.282;2022-12-15T01:13:29;19.70;76.10
12922;DHT22;6528;48.086;16.282;2022-12-15T01:16:15;19.70;76.20
12922;DHT22;6528;48.086;16.282;2022-12-15T01:19:01;19.70;76.20
12922;DHT22;6528;48.086;16.282;2022-12-15T01:21:46;19.70;76.10
12922;DHT22;6528;48.086;16.282;2022-12-15T01:24:15;19.70;76.10
12922;DHT22;6528;48.086;16.282;2022-12-15T01:26:41;19.80;76.20
12922;DHT22;6528;48.086;16.282;2022-12-15T01:29:08;19.70;76.20
12922;DHT22;6528;48.086;16.282;2022-12-15T01:31:35;19.80;76.30
12922;DHT22;6528;48.086;16.282;2022-12-15T01:34:02;19.80;76.20
12922;DHT22;6528;48.086;16.282;2022-12-15T01:36:28;19.80;76.20
12922;DHT22;6528;48.086;16.282;2022-12-15T01:38:55;19.70;76.10
12922;DHT22;6528;48.086;16.282;2022-12-15T01:41:22;19.80;76.20
12922;DHT22;6528;48.086;16.282;2022-12-15T01:43:49;19.70;76.00
12922;DHT22;6528;48.086;16.282;2022-12-15T01:46:18;19.80;76.10
12922;DHT22;6528;48.086;16.282;2022-12-15T01:48:56;19.80;76.10
12922;DHT22;6528;48.086;16.282;2022-12-15T01:51:33;19.80;76.00
12922;DHT22;6528;48.086;16.282;2022-12-15T01:54:05;19.80;76.00
12922;DHT22;6528;48.086;16.282;2022-12-15T01:56:36;19.80;76.00
12922;DHT22;6528;48.086;16.282;2022-12-15T01:59:09;19.80;76.00
12922;DHT22;6528;48.086;16.282;2022-12-15T02:01:37;19.80;75.90
12922;DHT22;6528;48.086;16.282;2022-12-15T02:04:04;19.80;75.90
12922;DHT22;6528;48.086;16.282;2022-12-15T02:06:30;19.80;75.80
12922;DHT22;6528;48.086;16.282;2022-12-15T02:08:58;19.80;75.80
12922;DHT22;6528;48.086;16.282;2022-12-15T02:11:48;19.80;75.80
12922;DHT22;6528;48.086;16.282;2022-12-15T02:17:49;19.80;75.70
12922;DHT22;6528;48.086;16.282;2022-12-15T02:31:59;19.70;75.40
12922;DHT22;6528;48.086;16.282;2022-12-15T02:34:54;19.70;75.50
12922;DHT22;6528;48.086;16.282;2022-12-15T02:37:30;19.70;75.50
12922;DHT22;6528;48.086;16.282;2022-12-15T02:39:58;19.70;75.40
12922;DHT22;6528;48.086;16.282;2022-12-15T02:42:27;19.70;75.40
12922;DHT22;6528;48.086;16.282;2022-12-15T02:45:06;19.70;76.10
12922;DHT22;6528;48.086;16.282;2022-12-15T02:50:43;19.70;75.50
12922;DHT22;6528;48.086;16.282;2022-12-15T02:54:06;19.70;75.50
12922;DHT22;6528;48.086;16.282;2022-12-15T02:56:32;19.70;75.50
12922;DHT22;6528;48.086;16.282;2022-12-15T02:59:24;19.70;75.60
12922;DHT22;6528;48.086;16.282;2022-12-15T03:02:01;19.70;75.60
12922;DHT22;6528;48.086;16.282;2022-12-15T03:04:29;19.70;75.60
12922;DHT22;6528;48.086;16.282;2022-12-15T03:07:03;19.70;75.70
12922;DHT22;6528;48.086;16.282;2022-12-15T03:09:31;19.70;75.90
12922;DHT22;6528;48.086;16.282;2022-12-15T03:11:58;19.70;75.90
12922;DHT22;6528;48.086;16.282;2022-12-15T03:14:25;19.70;75.90
12922;DHT22;6528;48.086;16.282;2022-12-15T03:16:53;19.70;75.90
12922;DHT22;6528;48.086;16.282;2022-12-15T03:19:20;19.70;75.90
12922;DHT22;6528;48.086;16.282;2022-12-15T03:21:47;19.70;76.00
12922;DHT22;6528;48.086;16.282;2022-12-15T03:24:13;19.70;75.90
12922;DHT22;6528;48.086;16.282;2022-12-15T03:26:40;19.70;75.80
12922;DHT22;6528;48.086;16.282;2022-12-15T03:29:07;19.70;75.90
12922;DHT22;6528;48.086;16.282;2022-12-15T03:31:34;19.70;75.90
12922;DHT22;6528;48.086;16.282;2022-12-15T03:34:01;19.70;75.80
12922;DHT22;6528;48.086;16.282;2022-12-15T03:36:28;19.70;75.80
12922;DHT22;6528;48.086;16.282;2022-12-15T03:38:55;19.70;75.80
12922;DHT22;6528;48.086;16.282;2022-12-15T03:41:21;19.70;75.70
12922;DHT22;6528;48.086;16.282;2022-12-15T03:43:48;19.70;75.70
12922;DHT22;6528;48.086;16.282;2022-12-15T03:46:15;19.70;75.70
12922;DHT22;6528;48.086;16.282;2022-12-15T03:48:42;19.70;75.70
12922;DHT22;6528;48.086;16.282;2022-12-15T03:51:09;19.70;75.60
12922;DHT22;6528;48.086;16.282;2022-12-15T03:53:36;19.70;75.60
12922;DHT22;6528;48.086;16.282;2022-12-15T03:56:03;19.70;75.60
12922;DHT22;6528;48.086;16.282;2022-12-15T03:58:30;19.70;75.60
12922;DHT22;6528;48.086;16.282;2022-12-15T04:00:57;19.70;75.60
12922;DHT22;6528;48.086;16.282;2022-12-15T04:03:24;19.70;75.60
12922;DHT22;6528;48.086;16.282;2022-12-15T04:05:50;19.70;75.60
12922;DHT22;6528;48.086;16.282;2022-12-15T04:08:17;19.70;75.50
12922;DHT22;6528;48.086;16.282;2022-12-15T04:10:44;19.70;75.60
12922;DHT22;6528;48.086;16.282;2022-12-15T04:13:11;19.70;75.50
12922;DHT22;6528;48.086;16.282;2022-12-15T04:15:39;19.70;75.40
12922;DHT22;6528;48.086;16.282;2022-12-15T04:18:08;19.70;75.50
12922;DHT22;6528;48.086;16.282;2022-12-15T04:20:37;19.70;75.50
12922;DHT22;6528;48.086;16.282;2022-12-15T04:23:04;19.70;76.00
12922;DHT22;6528;48.086;16.282;2022-12-15T04:25:33;19.70;75.70
12922;DHT22;6528;48.086;16.282;2022-12-15T04:28:19;19.70;75.70
12922;DHT22;6528;48.086;16.282;2022-12-15T04:31:09;19.70;75.70
12922;DHT22;6528;48.086;16.282;2022-12-15T04:34:01;19.70;75.70
12922;DHT22;6528;48.086;16.282;2022-12-15T04:36:49;19.70;75.70
12922;DHT22;6528;48.086;16.282;2022-12-15T04:39:37;19.60;75.50
12922;DHT22;6528;48.086;16.282;2022-12-15T04:42:23;19.60;75.70
12922;DHT22;6528;48.086;16.282;2022-12-15T04:45:10;19.70;75.90
12922;DHT22;6528;48.086;16.282;2022-12-15T04:47:56;19.60;75.80
12922;DHT22;6528;48.086;16.282;2022-12-15T04:50:43;19.60;75.80
12922;DHT22;6528;48.086;16.282;2022-12-15T04:53:28;19.60;75.90
12922;DHT22;6528;48.086;16.282;2022-12-15T04:56:14;19.70;75.90
12922;DHT22;6528;48.086;16.282;2022-12-15T04:59:00;19.60;75.80
12922;DHT22;6528;48.086;16.282;2022-12-15T05:01:46;19.70;76.00
12922;DHT22;6528;48.086;16.282;2022-12-15T05:04:32;19.70;76.10
12922;DHT22;6528;48.086;16.282;2022-12-15T05:07:18;19.70;76.00
12922;DHT22;6528;48.086;16.282;2022-12-15T05:10:04;19.70;76.20
12922;DHT22;6528;48.086;16.282;2022-12-15T05:12:50;19.70;76.20
12922;DHT22;6528;48.086;16.282;2022-12-15T05:15:35;19.70;76.40
12922;DHT22;6528;48.086;16.282;2022-12-15T05:18:21;19.70;76.60
12922;DHT22;6528;48.086;16.282;2022-12-15T05:21:06;19.70;76.40
12922;DHT22;6528;48.086;16.282;2022-12-15T05:23:52;19.70;76.40
12922;DHT22;6528;48.086;16.282;2022-12-15T05:26:37;19.70;76.30
12922;DHT22;6528;48.086;16.282;2022-12-15T05:29:23;19.70;76.40
12922;DHT22;6528;48.086;16.282;2022-12-15T05:32:08;19.70;76.70
12922;DHT22;6528;48.086;16.282;2022-12-15T05:34:35;19.70;76.70
12922;DHT22;6528;48.086;16.282;2022-12-15T05:37:04;19.70;76.60
12922;DHT22;6528;48.086;16.282;2022-12-15T05:39:32;19.70;76.60
12922;DHT22;6528;48.086;16.282;2022-12-15T05:42:00;19.70;76.60
12922;DHT22;6528;48.086;16.282;2022-12-15T05:44:27;19.80;76.60
12922;DHT22;6528;48.086;16.282;2022-12-15T05:46:54;19.80;76.60
12922;DHT22;6528;48.086;16.282;2022-12-15T05:49:21;19.80;76.50
12922;DHT22;6528;48.086;16.282;2022-12-15T05:51:48;19.80;76.40
12922;DHT22;6528;48.086;16.282;2022-12-15T05:54:17;19.80;76.40
12922;DHT22;6528;48.086;16.282;2022-12-15T05:56:45;19.80;76.40
12922;DHT22;6528;48.086;16.282;2022-12-15T05:59:16;19.80;76.40
12922;DHT22;6528;48.086;16.282;2022-12-15T06:01:44;19.80;77.20
12922;DHT22;6528;48.086;16.282;2022-12-15T06:04:11;19.80;76.30
12922;DHT22;6528;48.086;16.282;2022-12-15T06:06:39;19.80;76.20
12922;DHT22;6528;48.086;16.282;2022-12-15T06:09:06;19.80;76.20
12922;DHT22;6528;48.086;16.282;2022-12-15T06:11:34;19.80;76.30
12922;DHT22;6528;48.086;16.282;2022-12-15T06:14:00;19.80;76.30
12922;DHT22;6528;48.086;16.282;2022-12-15T06:16:27;19.80;76.30
12922;DHT22;6528;48.086;16.282;2022-12-15T06:18:57;19.80;76.30
12922;DHT22;6528;48.086;16.282;2022-12-15T06:21:27;19.80;76.30
12922;DHT22;6528;48.086;16.282;2022-12-15T06:23:55;19.80;76.30
12922;DHT22;6528;48.086;16.282;2022-12-15T06:26:23;19.80;76.30
12922;DHT22;6528;48.086;16.282;2022-12-15T06:28:53;19.80;76.30
12922;DHT22;6528;48.086;16.282;2022-12-15T06:31:20;19.80;76.20
12922;DHT22;6528;48.086;16.282;2022-12-15T06:33:48;19.80;76.20
12922;DHT22;6528;48.086;16.282;2022-12-15T06:36:25;19.80;76.20
12922;DHT22;6528;48.086;16.282;2022-12-15T06:38:51;19.80;76.00
12922;DHT22;6528;48.086;16.282;2022-12-15T06:41:20;19.80;76.10
12922;DHT22;6528;48.086;16.282;2022-12-15T06:43:51;19.80;76.00
12922;DHT22;6528;48.086;16.282;2022-12-15T06:46:19;19.80;76.00
12922;DHT22;6528;48.086;16.282;2022-12-15T06:48:46;19.80;76.00
12922;DHT22;6528;48.086;16.282;2022-12-15T06:51:14;19.80;75.90
12922;DHT22;6528;48.086;16.282;2022-12-15T06:53:43;19.80;75.80
12922;DHT22;6528;48.086;16.282;2022-12-15T06:59:00;19.80;76.10
12922;DHT22;6528;48.086;16.282;2022-12-15T07:01:28;19.80;75.60
12922;DHT22;6528;48.086;16.282;2022-12-15T07:03:56;19.80;75.10
12922;DHT22;6528;48.086;16.282;2022-12-15T07:06:26;19.80;74.60
12922;DHT22;6528;48.086;16.282;2022-12-15T07:08:54;19.80;74.10
12922;DHT22;6528;48.086;16.282;2022-12-15T07:11:22;19.90;73.90
12922;DHT22;6528;48.086;16.282;2022-12-15T07:13:51;19.80;73.50
12922;DHT22;6528;48.086;16.282;2022-12-15T07:16:19;19.80;73.30
12922;DHT22;6528;48.086;16.282;2022-12-15T07:18:47;19.90;73.20
12922;DHT22;6528;48.086;16.282;2022-12-15T07:21:14;19.90;73.10
12922;DHT22;6528;48.086;16.282;2022-12-15T07:23:41;19.80;72.90
12922;DHT22;6528;48.086;16.282;2022-12-15T07:26:25;19.90;72.90
12922;DHT22;6528;48.086;16.282;2022-12-15T07:28:52;19.90;72.60
12922;DHT22;6528;48.086;16.282;2022-12-15T07:31:20;19.90;72.60
12922;DHT22;6528;48.086;16.282;2022-12-15T07:33:47;19.90;72.60
12922;DHT22;6528;48.086;16.282;2022-12-15T07:36:14;19.90;72.50
12922;DHT22;6528;48.086;16.282;2022-12-15T07:38:41;19.90;72.40
12922;DHT22;6528;48.086;16.282;2022-12-15T07:41:09;19.90;72.30
12922;DHT22;6528;48.086;16.282;2022-12-15T07:43:36;19.90;72.20
12922;DHT22;6528;48.086;16.282;2022-12-15T07:46:04;19.90;72.10
12922;DHT22;6528;48.086;16.282;2022-12-15T07:48:31;19.90;72.10
12922;DHT22;6528;48.086;16.282;2022-12-15T07:51:04;20.00;72.00
12922;DHT22;6528;48.086;16.282;2022-12-15T07:53:41;19.90;71.40
12922;DHT22;6528;48.086;16.282;2022-12-15T07:56:07;19.90;71.20
12922;DHT22;6528;48.086;16.282;2022-12-15T07:58:36;19.90;71.00
12922;DHT22;6528;48.086;16.282;2022-12-15T08:01:06;19.90;70.80
12922;DHT22;6528;48.086;16.282;2022-12-15T08:03:35;19.90;70.60
12922;DHT22;6528;48.086;16.282;2022-12-15T08:06:04;19.90;70.50
12922;DHT22;6528;48.086;16.282;2022-12-15T08:08:32;19.90;70.30
12922;DHT22;6528;48.086;16.282;2022-12-15T08:11:07;19.90;70.10
12922;DHT22;6528;48.086;16.282;2022-12-15T08:13:35;20.00;70.20
12922;DHT22;6528;48.086;16.282;2022-12-15T08:16:22;19.90;70.10
12922;DHT22;6528;48.086;16.282;2022-12-15T08:18:49;20.00;70.10
12922;DHT22;6528;48.086;16.282;2022-12-15T08:21:16;19.90;70.00
12922;DHT22;6528;48.086;16.282;2022-12-15T08:23:43;19.90;69.80
12922;DHT22;6528;48.086;16.282;2022-12-15T08:26:13;19.90;69.90
12922;DHT22;6528;48.086;16.282;2022-12-15T08:28:40;19.90;69.70
12922;DHT22;6528;48.086;16.282;2022-12-15T08:31:10;20.00;69.80
12922;DHT22;6528;48.086;16.282;2022-12-15T08:33:38;19.90;69.60
12922;DHT22;6528;48.086;16.282;2022-12-15T08:36:07;19.90;69.90
12922;DHT22;6528;48.086;16.282;2022-12-15T08:38:36;19.90;69.50
12922;DHT22;6528;48.086;16.282;2022-12-15T08:41:12;19.90;69.50
12922;DHT22;6528;48.086;16.282;2022-12-15T08:43:39;19.90;69.50
12922;DHT22;6528;48.086;16.282;2022-12-15T08:46:24;19.90;69.50
12922;DHT22;6528;48.086;16.282;2022-12-15T08:48:52;19.90;69.50
12922;DHT22;6528;48.086;16.282;2022-12-15T08:51:20;19.90;69.50
12922;DHT22;6528;48.086;16.282;2022-12-15T08:53:47;19.90;69.40
12922;DHT22;6528;48.086;16.282;2022-12-15T08:56:17;19.90;69.40
12922;DHT22;6528;48.086;16.282;2022-12-15T08:58:45;20.00;70.40
12922;DHT22;6528;48.086;16.282;2022-12-15T09:01:21;20.00;69.50
12922;DHT22;6528;48.086;16.282;2022-12-15T09:03:54;19.90;69.40
12922;DHT22;6528;48.086;16.282;2022-12-15T09:06:27;20.00;69.60
12922;DHT22;6528;48.086;16.282;2022-12-15T09:08:55;19.90;69.50
12922;DHT22;6528;48.086;16.282;2022-12-15T09:11:24;20.00;69.70
12922;DHT22;6528;48.086;16.282;2022-12-15T09:13:51;19.90;69.60
12922;DHT22;6528;48.086;16.282;2022-12-15T09:16:18;19.90;69.80
12922;DHT22;6528;48.086;16.282;2022-12-15T09:18:51;20.00;70.30
12922;DHT22;6528;48.086;16.282;2022-12-15T09:21:19;20.00;70.40
12922;DHT22;6528;48.086;16.282;2022-12-15T09:23:49;20.10;70.40
12922;DHT22;6528;48.086;16.282;2022-12-15T09:26:19;20.10;70.40
12922;DHT22;6528;48.086;16.282;2022-12-15T09:28:46;20.10;70.50
12922;DHT22;6528;48.086;16.282;2022-12-15T09:31:19;20.20;70.80
12922;DHT22;6528;48.086;16.282;2022-12-15T09:33:48;20.20;66.50
12922;DHT22;6528;48.086;16.282;2022-12-15T09:36:16;19.80;59.80
12922;DHT22;6528;48.086;16.282;2022-12-15T09:38:43;19.10;59.80
